sensor_id;sensor_type;location;lat;lon;timestamp;pressure;altitude;pressure_sealevel;temperature;humidity
30856;BME280;17570;0.000;0.000;2023-11-19T00:00:29;96796.24;;;12.31;42.93
30856;BME280;17570;0.000;0.000;2023-11-19T00:02:56;96796.36;;;12.30;43.11
30856;BME280;17570;0.000;0.000;2023-11-19T00:05:24;96789.78;;;12.25;42.94
30856;BME280;17570;0.000;0.000;2023-11-19T00:07:51;96789.78;;;12.25;43.30
30856;BME280;17570;0.000;0.000;2023-11-19T00:10:19;96800.33;;;12.24;43.31
30856;BME280;17570;0.000;0.000;2023-11-19T00:12:47;96794.16;;;12.25;43.02
30856;BME280;17570;0.000;0.000;2023-11-19T00:15:15;96786.36;;;12.25;42.81
30856;BME280;17570;0.000;0.000;2023-11-19T00:17:45;96795.95;;;12.24;43.44
30856;BME280;17570;0.000;0.000;2023-11-19T00:20:14;96788.28;;;12.23;43.34
30856;BME280;17570;0.000;0.000;2023-11-19T00:22:41;96792.53;;;12.24;43.00
30856;BME280;17570;0.000;0.000;2023-11-19T00:25:09;96764.45;;;12.28;42.81
30856;BME280;17570;0.000;0.000;2023-11-19T00:27:37;96778.03;;;12.31;42.47
30856;BME280;17570;0.000;0.000;2023-11-19T00:30:05;96770.74;;;12.35;42.88
30856;BME280;17570;0.000;0.000;2023-11-19T00:32:33;96783.08;;;12.33;42.68
30856;BME280;17570;0.000;0.000;2023-11-19T00:35:00;96790.89;;;12.33;42.48
30856;BME280;17570;0.000;0.000;2023-11-19T00:37:29;96788.70;;;12.28;42.53
30856;BME280;17570;0.000;0.000;2023-11-19T00:39:56;96774.16;;;12.25;42.66
30856;BME280;17570;0.000;0.000;2023-11-19T00:42:24;96790.74;;;12.24;42.61
30856;BME280;17570;0.000;0.000;2023-11-19T00:44:53;96797.06;;;12.22;41.89
30856;BME280;17570;0.000;0.000;2023-11-19T00:47:21;96798.95;;;12.20;42.59
30856;BME280;17570;0.000;0.000;2023-11-19T00:49:49;96801.56;;;12.20;42.57
30856;BME280;17570;0.000;0.000;2023-11-19T00:52:17;96808.70;;;12.18;42.57
30856;BME280;17570;0.000;0.000;2023-11-19T00:54:45;96820.03;;;12.17;42.79
30856;BME280;17570;0.000;0.000;2023-11-19T00:57:12;96820.33;;;12.14;42.22
30856;BME280;17570;0.000;0.000;2023-11-19T00:59:43;96830.44;;;12.17;42.27
30856;BME280;17570;0.000;0.000;2023-11-19T01:02:11;96827.84;;;12.17;42.08
30856;BME280;17570;0.000;0.000;2023-11-19T01:04:40;96834.16;;;12.14;42.48
30856;BME280;17570;0.000;0.000;2023-11-19T01:07:08;96832.37;;;12.15;43.05
30856;BME280;17570;0.000;0.000;2023-11-19T01:09:37;96833.75;;;12.19;42.60
30856;BME280;17570;0.000;0.000;2023-11-19T01:12:05;96830.59;;;12.15;42.33
30856;BME280;17570;0.000;0.000;2023-11-19T01:14:32;96828.80;;;12.16;42.24
30856;BME280;17570;0.000;0.000;2023-11-19T01:17:05;96847.02;;;12.16;42.21
30856;BME280;17570;0.000;0.000;2023-11-19T01:19:33;96844.81;;;12.11;42.53
30856;BME280;17570;0.000;0.000;2023-11-19T01:22:00;96831.41;;;12.16;42.50
30856;BME280;17570;0.000;0.000;2023-11-19T01:24:28;96843.45;;;12.17;42.88
30856;BME280;17570;0.000;0.000;2023-11-19T01:26:57;96839.63;;;12.21;42.14
30856;BME280;17570;0.000;0.000;2023-11-19T01:29:26;96824.98;;;12.20;42.72
30856;BME280;17570;0.000;0.000;2023-11-19T01:31:53;96833.60;;;12.20;42.31
30856;BME280;17570;0.000;0.000;2023-11-19T01:34:21;96830.89;;;12.22;42.12
30856;BME280;17570;0.000;0.000;2023-11-19T01:36:48;96827.32;;;12.23;42.39
30856;BME280;17570;0.000;0.000;2023-11-19T01:39:16;96827.44;;;12.21;41.82
30856;BME280;17570;0.000;0.000;2023-11-19T01:41:44;96825.80;;;12.20;42.09
30856;BME280;17570;0.000;0.000;2023-11-19T01:44:11;96831.97;;;12.19;42.02
30856;BME280;17570;0.000;0.000;2023-11-19T01:46:40;96833.75;;;12.19;42.27
30856;BME280;17570;0.000;0.000;2023-11-19T01:49:08;96832.64;;;12.21;41.73
30856;BME280;17570;0.000;0.000;2023-11-19T01:51:35;96839.09;;;12.17;41.83
30856;BME280;17570;0.000;0.000;2023-11-19T01:54:03;96846.61;;;12.20;41.71
30856;BME280;17570;0.000;0.000;2023-11-19T01:56:31;96848.25;;;12.21;41.64
30856;BME280;17570;0.000;0.000;2023-11-19T01:58:59;96832.11;;;12.18;41.48
30856;BME280;17570;0.000;0.000;2023-11-19T02:01:27;96824.42;;;12.16;41.09
30856;BME280;17570;0.000;0.000;2023-11-19T02:03:56;96831.30;;;12.17;41.24
30856;BME280;17570;0.000;0.000;2023-11-19T02:06:24;96827.72;;;12.18;41.85
30856;BME280;17570;0.000;0.000;2023-11-19T02:08:53;96832.11;;;12.18;40.89
30856;BME280;17570;0.000;0.000;2023-11-19T02:11:20;96826.20;;;12.16;41.30
30856;BME280;17570;0.000;0.000;2023-11-19T02:13:48;96826.77;;;12.19;41.39
30856;BME280;17570;0.000;0.000;2023-11-19T02:16:15;96838.95;;;12.19;41.15
30856;BME280;17570;0.000;0.000;2023-11-19T02:18:43;96832.64;;;12.21;41.40
30856;BME280;17570;0.000;0.000;2023-11-19T02:21:10;96833.34;;;12.23;41.29
30856;BME280;17570;0.000;0.000;2023-11-19T02:23:38;96836.91;;;12.22;40.94
30856;BME280;17570;0.000;0.000;2023-11-19T02:28:35;96836.35;;;12.19;41.27
30856;BME280;17570;0.000;0.000;2023-11-19T02:31:03;96821.00;;;12.16;41.54
30856;BME280;17570;0.000;0.000;2023-11-19T02:33:38;96822.64;;;12.17;41.41
30856;BME280;17570;0.000;0.000;2023-11-19T02:36:06;96822.11;;;12.13;41.77
30856;BME280;17570;0.000;0.000;2023-11-19T02:38:34;96831.15;;;12.19;41.14
30856;BME280;17570;0.000;0.000;2023-11-19T02:41:06;96838.81;;;12.20;40.84
30856;BME280;17570;0.000;0.000;2023-11-19T02:43:34;96827.84;;;12.17;40.90
30856;BME280;17570;0.000;0.000;2023-11-19T02:46:04;96827.17;;;12.15;40.81
30856;BME280;17570;0.000;0.000;2023-11-19T02:48:35;96833.60;;;12.20;40.57
30856;BME280;17570;0.000;0.000;2023-11-19T02:51:03;96840.03;;;12.16;40.79
30856;BME280;17570;0.000;0.000;2023-11-19T02:53:30;96835.94;;;12.14;40.81
30856;BME280;17570;0.000;0.000;2023-11-19T02:55:58;96840.17;;;12.15;40.55
30856;BME280;17570;0.000;0.000;2023-11-19T02:58:28;96825.13;;;12.18;40.86
30856;BME280;17570;0.000;0.000;2023-11-19T03:00:56;96824.16;;;12.19;40.47
30856;BME280;17570;0.000;0.000;2023-11-19T03:03:24;96815.53;;;12.19;40.13
30856;BME280;17570;0.000;0.000;2023-11-19T03:05:54;96812.78;;;12.20;40.81
30856;BME280;17570;0.000;0.000;2023-11-19T03:08:22;96844.30;;;12.17;41.27
30856;BME280;17570;0.000;0.000;2023-11-19T03:10:49;96836.35;;;12.19;41.06
30856;BME280;17570;0.000;0.000;2023-11-19T03:13:17;96842.52;;;12.18;41.33
30856;BME280;17570;0.000;0.000;2023-11-19T03:15:44;96832.78;;;12.20;41.08
30856;BME280;17570;0.000;0.000;2023-11-19T03:18:12;96847.72;;;12.18;40.97
30856;BME280;17570;0.000;0.000;2023-11-19T03:20:39;96853.34;;;12.23;41.26
30856;BME280;17570;0.000;0.000;2023-11-19T03:23:07;96836.77;;;12.24;40.78
30856;BME280;17570;0.000;0.000;2023-11-19T03:25:35;96834.16;;;12.24;40.25
30856;BME280;17570;0.000;0.000;2023-11-19T03:28:03;96849.10;;;12.22;40.83
30856;BME280;17570;0.000;0.000;2023-11-19T03:30:31;96853.74;;;12.18;40.69
30856;BME280;17570;0.000;0.000;2023-11-19T03:32:59;96856.91;;;12.22;40.92
30856;BME280;17570;0.000;0.000;2023-11-19T03:35:27;96851.41;;;12.25;40.44
30856;BME280;17570;0.000;0.000;2023-11-19T03:37:55;96863.75;;;12.23;40.36
30856;BME280;17570;0.000;0.000;2023-11-19T03:40:23;96863.75;;;12.23;40.47
30856;BME280;17570;0.000;0.000;2023-11-19T03:42:53;96866.35;;;12.23;40.58
30856;BME280;17570;0.000;0.000;2023-11-19T03:45:20;96870.73;;;12.22;40.59
30856;BME280;17570;0.000;0.000;2023-11-19T03:47:48;96878.95;;;12.18;40.10
30856;BME280;17570;0.000;0.000;2023-11-19T03:50:16;96869.76;;;12.14;40.18
30856;BME280;17570;0.000;0.000;2023-11-19T03:52:46;96874.67;;;12.17;40.99
30856;BME280;17570;0.000;0.000;2023-11-19T03:55:13;96891.14;;;12.17;40.75
30856;BME280;17570;0.000;0.000;2023-11-19T03:57:41;96878.80;;;12.19;40.88
30856;BME280;17570;0.000;0.000;2023-11-19T04:00:09;96887.17;;;12.23;40.33
30856;BME280;17570;0.000;0.000;2023-11-19T04:02:40;96891.97;;;12.28;39.70
30856;BME280;17570;0.000;0.000;2023-11-19T04:05:08;96899.36;;;12.22;40.18
30856;BME280;17570;0.000;0.000;2023-11-19T04:07:36;96884.00;;;12.19;40.27
30856;BME280;17570;0.000;0.000;2023-11-19T04:10:04;96907.56;;;12.18;39.88
30856;BME280;17570;0.000;0.000;2023-11-19T04:12:31;96912.63;;;12.19;40.10
30856;BME280;17570;0.000;0.000;2023-11-19T04:14:59;96905.64;;;12.20;40.05
30856;BME280;17570;0.000;0.000;2023-11-19T04:17:26;96902.22;;;12.19;40.20
30856;BME280;17570;0.000;0.000;2023-11-19T04:19:54;96906.86;;;12.16;39.88
30856;BME280;17570;0.000;0.000;2023-11-19T04:22:22;96909.46;;;12.16;39.25
30856;BME280;17570;0.000;0.000;2023-11-19T04:24:51;96913.70;;;12.17;39.49
30856;BME280;17570;0.000;0.000;2023-11-19T04:27:18;96913.84;;;12.15;39.60
30856;BME280;17570;0.000;0.000;2023-11-19T04:29:46;96914.67;;;12.16;39.43
30856;BME280;17570;0.000;0.000;2023-11-19T04:32:14;96928.38;;;12.18;39.37
30856;BME280;17570;0.000;0.000;2023-11-19T04:34:42;96935.23;;;12.19;39.59
30856;BME280;17570;0.000;0.000;2023-11-19T04:37:09;96938.65;;;12.19;39.81
30856;BME280;17570;0.000;0.000;2023-11-19T04:39:37;96936.19;;;12.18;39.17
30856;BME280;17570;0.000;0.000;2023-11-19T04:42:04;96936.30;;;12.16;39.44
30856;BME280;17570;0.000;0.000;2023-11-19T04:44:32;96932.88;;;12.16;39.96
30856;BME280;17570;0.000;0.000;2023-11-19T04:47:00;96936.59;;;12.13;40.51
30856;BME280;17570;0.000;0.000;2023-11-19T04:49:27;96927.00;;;12.14;40.28
30856;BME280;17570;0.000;0.000;2023-11-19T04:51:56;96917.41;;;12.14;40.03
30856;BME280;17570;0.000;0.000;2023-11-19T04:54:24;96937.41;;;12.14;40.01
30856;BME280;17570;0.000;0.000;2023-11-19T04:56:51;96928.36;;;12.08;40.08
30856;BME280;17570;0.000;0.000;2023-11-19T04:59:19;96935.77;;;12.13;39.35
30856;BME280;17570;0.000;0.000;2023-11-19T05:01:47;96938.08;;;12.16;39.41
30856;BME280;17570;0.000;0.000;2023-11-19T05:04:14;96944.67;;;12.20;39.86
30856;BME280;17570;0.000;0.000;2023-11-19T05:06:42;96945.07;;;12.15;39.59
30856;BME280;17570;0.000;0.000;2023-11-19T05:09:09;96950.98;;;12.17;40.29
30856;BME280;17570;0.000;0.000;2023-11-19T05:11:38;96946.70;;;12.16;39.27
30856;BME280;17570;0.000;0.000;2023-11-19T05:14:06;96947.53;;;12.17;39.37
30856;BME280;17570;0.000;0.000;2023-11-19T05:16:35;96955.08;;;12.20;39.66
30856;BME280;17570;0.000;0.000;2023-11-19T05:19:03;96953.58;;;12.17;39.01
30856;BME280;17570;0.000;0.000;2023-11-19T05:21:30;96944.00;;;12.18;39.11
30856;BME280;17570;0.000;0.000;2023-11-19T05:23:58;96944.92;;;12.17;38.98
30856;BME280;17570;0.000;0.000;2023-11-19T05:26:25;96953.84;;;12.14;39.68
30856;BME280;17570;0.000;0.000;2023-11-19T05:28:53;96964.10;;;12.16;39.30
30856;BME280;17570;0.000;0.000;2023-11-19T05:31:20;96959.86;;;12.15;39.41
30856;BME280;17570;0.000;0.000;2023-11-19T05:33:48;96959.18;;;12.13;39.18
30856;BME280;17570;0.000;0.000;2023-11-19T05:36:15;96960.54;;;12.17;39.29
30856;BME280;17570;0.000;0.000;2023-11-19T05:38:43;96960.82;;;12.14;40.36
30856;BME280;17570;0.000;0.000;2023-11-19T05:41:11;96949.59;;;12.13;39.54
30856;BME280;17570;0.000;0.000;2023-11-19T05:43:38;96945.89;;;12.16;39.50
30856;BME280;17570;0.000;0.000;2023-11-19T05:46:07;96959.61;;;12.18;39.96
30856;BME280;17570;0.000;0.000;2023-11-19T05:48:35;96952.20;;;12.13;39.10
30856;BME280;17570;0.000;0.000;2023-11-19T05:51:02;96946.85;;;12.15;39.23
30856;BME280;17570;0.000;0.000;2023-11-19T05:53:30;96952.87;;;12.15;39.29
30856;BME280;17570;0.000;0.000;2023-11-19T05:55:57;96949.20;;;12.18;38.97
30856;BME280;17570;0.000;0.000;2023-11-19T05:58:27;96957.12;;;12.16;39.75
30856;BME280;17570;0.000;0.000;2023-11-19T06:00:58;96959.30;;;12.11;39.34
30856;BME280;17570;0.000;0.000;2023-11-19T06:03:30;96954.91;;;12.12;38.79
30856;BME280;17570;0.000;0.000;2023-11-19T06:05:57;96964.49;;;12.11;38.78
30856;BME280;17570;0.000;0.000;2023-11-19T06:08:25;96962.46;;;12.15;39.02
30856;BME280;17570;0.000;0.000;2023-11-19T06:10:53;96970.52;;;12.12;38.89
30856;BME280;17570;0.000;0.000;2023-11-19T06:13:21;96976.55;;;12.12;38.89
30856;BME280;17570;0.000;0.000;2023-11-19T06:15:48;96987.80;;;12.13;39.03
30856;BME280;17570;0.000;0.000;2023-11-19T06:18:17;96979.14;;;12.12;39.36
30856;BME280;17570;0.000;0.000;2023-11-19T06:20:46;96985.20;;;12.13;39.68
30856;BME280;17570;0.000;0.000;2023-11-19T06:23:13;96986.95;;;12.12;39.29
30856;BME280;17570;0.000;0.000;2023-11-19T06:25:41;96978.07;;;12.15;38.83
30856;BME280;17570;0.000;0.000;2023-11-19T06:28:08;96995.72;;;12.11;39.08
30856;BME280;17570;0.000;0.000;2023-11-19T06:30:36;96989.44;;;12.14;38.96
30856;BME280;17570;0.000;0.000;2023-11-19T06:33:03;96995.89;;;12.19;39.29
30856;BME280;17570;0.000;0.000;2023-11-19T06:35:31;96997.11;;;12.15;38.15
30856;BME280;17570;0.000;0.000;2023-11-19T06:38:00;96989.05;;;12.18;39.09
30856;BME280;17570;0.000;0.000;2023-11-19T06:40:35;96998.50;;;12.19;38.45
30856;BME280;17570;0.000;0.000;2023-11-19T06:43:03;96997.11;;;12.15;38.38
30856;BME280;17570;0.000;0.000;2023-11-19T06:45:31;96977.39;;;12.13;38.88
30856;BME280;17570;0.000;0.000;2023-11-19T06:48:04;96993.69;;;12.15;38.32
30856;BME280;17570;0.000;0.000;2023-11-19T06:50:30;96977.68;;;12.19;38.54
30856;BME280;17570;0.000;0.000;2023-11-19T06:52:58;96999.70;;;12.15;37.31
30856;BME280;17570;0.000;0.000;2023-11-19T06:55:31;97012.86;;;12.14;38.37
30856;BME280;17570;0.000;0.000;2023-11-19T06:57:55;96993.39;;;12.08;37.37
30856;BME280;17570;0.000;0.000;2023-11-19T07:00:22;97001.88;;;12.10;37.69
30856;BME280;17570;0.000;0.000;2023-11-19T07:02:50;97012.97;;;12.12;37.78
30856;BME280;17570;0.000;0.000;2023-11-19T07:05:17;97010.26;;;12.14;37.95
30856;BME280;17570;0.000;0.000;2023-11-19T07:07:45;97026.30;;;12.19;38.03
30856;BME280;17570;0.000;0.000;2023-11-19T07:10:13;97013.54;;;12.16;37.71
30856;BME280;17570;0.000;0.000;2023-11-19T07:12:42;97019.45;;;12.18;37.33
30856;BME280;17570;0.000;0.000;2023-11-19T07:15:09;97018.06;;;12.14;37.27
30856;BME280;17570;0.000;0.000;2023-11-19T07:17:38;97025.16;;;12.12;37.12
30856;BME280;17570;0.000;0.000;2023-11-19T07:20:06;97018.17;;;12.12;37.56
30856;BME280;17570;0.000;0.000;2023-11-19T07:22:34;97020.09;;;12.10;37.07
30856;BME280;17570;0.000;0.000;2023-11-19T07:25:01;97022.55;;;12.12;37.22
30856;BME280;17570;0.000;0.000;2023-11-19T07:27:29;97033.28;;;12.18;37.51
30856;BME280;17570;0.000;0.000;2023-11-19T07:29:56;97034.11;;;12.19;37.20
30856;BME280;17570;0.000;0.000;2023-11-19T07:32:24;97034.53;;;12.24;37.55
30856;BME280;17570;0.000;0.000;2023-11-19T07:34:51;97048.12;;;12.28;37.42
30856;BME280;17570;0.000;0.000;2023-11-19T07:37:19;97037.81;;;12.26;37.25
30856;BME280;17570;0.000;0.000;2023-11-19T07:39:46;97045.20;;;12.21;37.61
30856;BME280;17570;0.000;0.000;2023-11-19T07:42:14;97050.97;;;12.24;37.79
30856;BME280;17570;0.000;0.000;2023-11-19T07:44:42;97041.95;;;12.29;36.87
30856;BME280;17570;0.000;0.000;2023-11-19T07:47:10;97036.06;;;12.27;36.86
30856;BME280;17570;0.000;0.000;2023-11-19T07:49:39;97039.78;;;12.34;36.68
30856;BME280;17570;0.000;0.000;2023-11-19T07:52:06;97033.61;;;12.35;36.88
30856;BME280;17570;0.000;0.000;2023-11-19T07:54:34;97023.91;;;12.37;37.04
30856;BME280;17570;0.000;0.000;2023-11-19T07:57:01;97030.90;;;12.36;36.89
30856;BME280;17570;0.000;0.000;2023-11-19T07:59:29;97040.09;;;12.40;36.78
30856;BME280;17570;0.000;0.000;2023-11-19T08:01:56;97034.89;;;12.40;36.78
30856;BME280;17570;0.000;0.000;2023-11-19T08:04:24;97045.98;;;12.42;37.09
30856;BME280;17570;0.000;0.000;2023-11-19T08:06:51;97040.52;;;12.45;37.32
30856;BME280;17570;0.000;0.000;2023-11-19T08:09:19;97041.38;;;12.56;37.08
30856;BME280;17570;0.000;0.000;2023-11-19T08:11:47;97046.19;;;12.60;36.68
30856;BME280;17570;0.000;0.000;2023-11-19T08:14:14;97047.69;;;12.63;36.89
30856;BME280;17570;0.000;0.000;2023-11-19T08:16:42;97049.06;;;12.67;37.14
30856;BME280;17570;0.000;0.000;2023-11-19T08:19:10;97049.48;;;12.72;36.29
30856;BME280;17570;0.000;0.000;2023-11-19T08:21:37;97040.31;;;12.77;36.57
30856;BME280;17570;0.000;0.000;2023-11-19T08:24:05;97049.52;;;12.82;36.72
30856;BME280;17570;0.000;0.000;2023-11-19T08:26:32;97055.01;;;12.79;37.13
30856;BME280;17570;0.000;0.000;2023-11-19T08:29:00;97050.48;;;12.81;36.55
30856;BME280;17570;0.000;0.000;2023-11-19T08:31:28;97057.89;;;12.85;35.96
30856;BME280;17570;0.000;0.000;2023-11-19T08:33:55;97059.42;;;12.88;36.00
30856;BME280;17570;0.000;0.000;2023-11-19T08:36:23;97061.31;;;12.86;36.25
30856;BME280;17570;0.000;0.000;2023-11-19T08:38:50;97059.84;;;12.93;36.30
30856;BME280;17570;0.000;0.000;2023-11-19T08:41:18;97055.45;;;12.93;35.72
30856;BME280;17570;0.000;0.000;2023-11-19T08:43:45;97059.42;;;12.88;35.60
30856;BME280;17570;0.000;0.000;2023-11-19T08:46:13;97058.71;;;12.86;35.53
30856;BME280;17570;0.000;0.000;2023-11-19T08:48:40;97061.73;;;12.91;36.56
30856;BME280;17570;0.000;0.000;2023-11-19T08:51:08;97050.80;;;12.97;35.79
30856;BME280;17570;0.000;0.000;2023-11-19T08:53:35;97046.27;;;12.99;35.69
30856;BME280;17570;0.000;0.000;2023-11-19T08:56:03;97043.40;;;13.02;35.29
30856;BME280;17570;0.000;0.000;2023-11-19T08:58:30;97048.62;;;13.12;34.89
30856;BME280;17570;0.000;0.000;2023-11-19T09:00:58;97040.51;;;13.15;36.00
30856;BME280;17570;0.000;0.000;2023-11-19T09:03:26;97044.49;;;13.19;34.90
30856;BME280;17570;0.000;0.000;2023-11-19T09:05:53;97031.38;;;13.30;35.23
30856;BME280;17570;0.000;0.000;2023-11-19T09:08:21;97031.94;;;13.34;35.29
30856;BME280;17570;0.000;0.000;2023-11-19T09:10:48;97025.34;;;13.39;34.55
30856;BME280;17570;0.000;0.000;2023-11-19T09:13:16;97028.77;;;13.40;34.23
30856;BME280;17570;0.000;0.000;2023-11-19T09:15:43;97020.24;;;13.38;34.95
30856;BME280;17570;0.000;0.000;2023-11-19T09:18:11;97026.97;;;13.50;34.99
30856;BME280;17570;0.000;0.000;2023-11-19T09:20:38;97024.09;;;13.53;34.88
30856;BME280;17570;0.000;0.000;2023-11-19T09:23:06;97021.48;;;13.63;34.68
30856;BME280;17570;0.000;0.000;2023-11-19T09:25:35;97017.21;;;13.71;34.17
30856;BME280;17570;0.000;0.000;2023-11-19T09:28:02;97015.42;;;13.72;33.79
30856;BME280;17570;0.000;0.000;2023-11-19T09:30:30;97009.63;;;13.78;33.90
30856;BME280;17570;0.000;0.000;2023-11-19T09:32:59;97011.82;;;13.83;33.86
30856;BME280;17570;0.000;0.000;2023-11-19T09:35:27;97006.84;;;13.89;34.01
30856;BME280;17570;0.000;0.000;2023-11-19T09:37:54;97008.77;;;13.97;33.52
30856;BME280;17570;0.000;0.000;2023-11-19T09:40:22;97015.89;;;14.04;33.57
30856;BME280;17570;0.000;0.000;2023-11-19T09:42:49;96999.38;;;14.14;33.09
30856;BME280;17570;0.000;0.000;2023-11-19T09:45:17;96999.89;;;14.17;33.52
30856;BME280;17570;0.000;0.000;2023-11-19T09:47:45;97017.45;;;14.25;33.08
30856;BME280;17570;0.000;0.000;2023-11-19T09:50:17;97003.69;;;14.33;32.62
30856;BME280;17570;0.000;0.000;2023-11-19T09:52:45;97003.11;;;14.39;32.58
30856;BME280;17570;0.000;0.000;2023-11-19T09:55:13;97006.92;;;14.44;32.49
30856;BME280;17570;0.000;0.000;2023-11-19T09:57:41;97001.58;;;14.46;32.45
30856;BME280;17570;0.000;0.000;2023-11-19T10:00:10;96988.93;;;14.51;32.34
30856;BME280;17570;0.000;0.000;2023-11-19T10:02:39;96987.80;;;14.53;31.72
30856;BME280;17570;0.000;0.000;2023-11-19T10:05:08;96997.43;;;14.53;32.38
30856;BME280;17570;0.000;0.000;2023-11-19T10:07:37;96990.95;;;14.57;31.85
30856;BME280;17570;0.000;0.000;2023-11-19T10:10:05;96990.67;;;14.60;32.21
30856;BME280;17570;0.000;0.000;2023-11-19T10:12:33;96977.17;;;14.65;32.66
30856;BME280;17570;0.000;0.000;2023-11-19T10:15:01;96985.38;;;14.70;32.30
30856;BME280;17570;0.000;0.000;2023-11-19T10:17:29;96987.68;;;14.73;31.74
30856;BME280;17570;0.000;0.000;2023-11-19T10:19:58;96986.86;;;14.72;31.89
30856;BME280;17570;0.000;0.000;2023-11-19T10:22:27;96986.30;;;14.78;31.75
30856;BME280;17570;0.000;0.000;2023-11-19T10:24:54;96979.12;;;14.80;31.58
30856;BME280;17570;0.000;0.000;2023-11-19T10:27:23;96972.38;;;14.78;31.79
30856;BME280;17570;0.000;0.000;2023-11-19T10:29:52;96965.23;;;14.80;31.55
30856;BME280;17570;0.000;0.000;2023-11-19T10:32:22;96970.46;;;14.80;30.60
30856;BME280;17570;0.000;0.000;2023-11-19T10:34:49;96960.22;;;14.87;31.75
30856;BME280;17570;0.000;0.000;2023-11-19T10:37:28;96973.53;;;14.93;31.03
30856;BME280;17570;0.000;0.000;2023-11-19T10:40:01;96958.38;;;14.97;31.07
30856;BME280;17570;0.000;0.000;2023-11-19T10:42:30;96957.69;;;14.95;31.29
30856;BME280;17570;0.000;0.000;2023-11-19T10:44:57;96942.55;;;14.98;31.44
30856;BME280;17570;0.000;0.000;2023-11-19T10:47:25;96949.33;;;15.09;31.34
30856;BME280;17570;0.000;0.000;2023-11-19T10:49:54;96953.28;;;15.13;30.65
30856;BME280;17570;0.000;0.000;2023-11-19T10:52:22;96958.67;;;15.12;30.73
30856;BME280;17570;0.000;0.000;2023-11-19T10:54:50;96956.06;;;15.12;31.00
30856;BME280;17570;0.000;0.000;2023-11-19T10:57:24;96962.63;;;15.16;31.34
30856;BME280;17570;0.000;0.000;2023-11-19T10:59:51;96966.72;;;15.18;31.20
30856;BME280;17570;0.000;0.000;2023-11-19T11:02:18;96965.09;;;15.17;31.06
30856;BME280;17570;0.000;0.000;2023-11-19T11:04:47;96964.92;;;15.19;30.68
30856;BME280;17570;0.000;0.000;2023-11-19T11:07:16;96963.95;;;15.20;30.86
30856;BME280;17570;0.000;0.000;2023-11-19T11:09:45;96957.77;;;15.21;31.23
30856;BME280;17570;0.000;0.000;2023-11-19T11:12:15;96969.62;;;15.33;31.33
30856;BME280;17570;0.000;0.000;2023-11-19T11:14:44;96970.66;;;15.40;31.00
30856;BME280;17570;0.000;0.000;2023-11-19T11:17:11;96964.81;;;15.46;30.86
30856;BME280;17570;0.000;0.000;2023-11-19T11:19:41;96956.15;;;15.64;30.60
30856;BME280;17570;0.000;0.000;2023-11-19T11:22:09;96948.25;;;15.81;30.55
30856;BME280;17570;0.000;0.000;2023-11-19T11:29:52;96948.59;;;16.21;29.44
30856;BME280;17570;0.000;0.000;2023-11-19T11:37:26;96926.84;;;16.87;29.80
30856;BME280;17570;0.000;0.000;2023-11-19T11:39:56;96922.30;;;17.30;29.66
30856;BME280;17570;0.000;0.000;2023-11-19T11:45:06;96908.00;;;18.13;29.66
30856;BME280;17570;0.000;0.000;2023-11-19T11:50:12;96896.34;;;18.77;28.81
30856;BME280;17570;0.000;0.000;2023-11-19T11:58:08;96896.63;;;19.43;27.30
30856;BME280;17570;0.000;0.000;2023-11-19T12:00:39;96903.72;;;19.57;26.27
30856;BME280;17570;0.000;0.000;2023-11-19T12:03:07;96908.41;;;19.70;25.61
30856;BME280;17570;0.000;0.000;2023-11-19T12:05:38;96902.33;;;19.70;25.65
30856;BME280;17570;0.000;0.000;2023-11-19T12:08:06;96897.06;;;19.70;25.30
30856;BME280;17570;0.000;0.000;2023-11-19T12:10:52;96887.26;;;19.64;24.19
30856;BME280;17570;0.000;0.000;2023-11-19T12:13:20;96892.92;;;19.52;23.91
30856;BME280;17570;0.000;0.000;2023-11-19T12:18:27;96894.78;;;19.29;23.97
30856;BME280;17570;0.000;0.000;2023-11-19T12:20:55;96890.24;;;19.23;23.34
30856;BME280;17570;0.000;0.000;2023-11-19T12:23:22;96887.89;;;19.28;22.95
30856;BME280;17570;0.000;0.000;2023-11-19T12:25:51;96888.77;;;19.20;22.69
30856;BME280;17570;0.000;0.000;2023-11-19T12:28:18;96882.75;;;19.11;23.38
30856;BME280;17570;0.000;0.000;2023-11-19T12:30:46;96876.92;;;19.01;23.56
30856;BME280;17570;0.000;0.000;2023-11-19T12:33:15;96871.44;;;18.88;24.07
30856;BME280;17570;0.000;0.000;2023-11-19T12:35:43;96871.23;;;18.75;24.55
30856;BME280;17570;0.000;0.000;2023-11-19T12:38:23;96872.48;;;18.56;24.90
30856;BME280;17570;0.000;0.000;2023-11-19T12:41:06;96869.13;;;18.39;25.18
30856;BME280;17570;0.000;0.000;2023-11-19T12:43:33;96865.64;;;18.16;25.47
30856;BME280;17570;0.000;0.000;2023-11-19T12:46:02;96863.44;;;17.96;25.84
30856;BME280;17570;0.000;0.000;2023-11-19T12:48:30;96856.09;;;17.83;26.43
30856;BME280;17570;0.000;0.000;2023-11-19T12:50:57;96847.58;;;17.81;26.22
30856;BME280;17570;0.000;0.000;2023-11-19T12:53:27;96838.39;;;17.69;26.50
30856;BME280;17570;0.000;0.000;2023-11-19T12:55:55;96827.60;;;17.56;26.33
30856;BME280;17570;0.000;0.000;2023-11-19T12:58:32;96832.05;;;17.47;26.43
30856;BME280;17570;0.000;0.000;2023-11-19T13:01:04;96823.06;;;17.33;26.79
30856;BME280;17570;0.000;0.000;2023-11-19T13:03:32;96826.23;;;17.21;27.20
30856;BME280;17570;0.000;0.000;2023-11-19T13:06:04;96829.17;;;17.18;27.19
30856;BME280;17570;0.000;0.000;2023-11-19T13:08:38;96818.19;;;17.14;27.16
30856;BME280;17570;0.000;0.000;2023-11-19T13:11:06;96818.05;;;17.07;26.82
30856;BME280;17570;0.000;0.000;2023-11-19T13:16:21;96808.23;;;16.93;27.30
30856;BME280;17570;0.000;0.000;2023-11-19T13:18:49;96810.67;;;16.78;27.42
30856;BME280;17570;0.000;0.000;2023-11-19T13:21:17;96802.67;;;16.80;27.64
30856;BME280;17570;0.000;0.000;2023-11-19T13:23:45;96798.42;;;16.79;27.80
30856;BME280;17570;0.000;0.000;2023-11-19T13:26:12;96797.75;;;16.77;27.73
30856;BME280;17570;0.000;0.000;2023-11-19T13:28:40;96793.00;;;16.72;27.46
30856;BME280;17570;0.000;0.000;2023-11-19T13:31:08;96797.73;;;16.61;27.75
30856;BME280;17570;0.000;0.000;2023-11-19T13:33:36;96795.92;;;16.53;27.59
30856;BME280;17570;0.000;0.000;2023-11-19T13:36:04;96799.85;;;16.57;27.79
30856;BME280;17570;0.000;0.000;2023-11-19T13:38:32;96805.58;;;16.52;27.97
30856;BME280;17570;0.000;0.000;2023-11-19T13:41:00;96808.22;;;16.61;27.57
30856;BME280;17570;0.000;0.000;2023-11-19T13:43:28;96807.37;;;16.68;27.46